createdAt,value
2023-03-04T00:00:48.721Z,-0.09
2023-03-04T00:04:04.250Z,0.05
2023-03-04T00:07:20.168Z,0.12
2023-03-04T00:10:37.896Z,0.12
2023-03-04T00:13:54.281Z,0.15
2023-03-04T00:17:10.638Z,0.09
2023-03-04T00:20:27.109Z,0.13
2023-03-04T00:23:44.484Z,0.23
2023-03-04T00:27:00.719Z,0.14
2023-03-04T00:30:19.426Z,0.10
2023-03-04T00:33:35.479Z,0.17
2023-03-04T00:36:51.621Z,0.15
2023-03-04T00:40:07.687Z,0.10
2023-03-04T00:43:23.752Z,0.03
2023-03-04T00:46:39.822Z,0.06
2023-03-04T00:49:56.053Z,0.15
2023-03-04T00:53:12.604Z,0.09
2023-03-04T00:56:28.664Z,0.10
2023-03-04T00:59:44.677Z,0.18
2023-03-04T01:03:00.923Z,0.22
2023-03-04T01:06:17.374Z,0.22
2023-03-04T01:09:33.354Z,0.20
2023-03-04T01:16:08.745Z,0.14
2023-03-04T01:19:24.732Z,0.22
2023-03-04T01:22:40.812Z,0.21
2023-03-04T01:25:56.932Z,0.22
2023-03-04T01:29:13.719Z,0.25
2023-03-04T01:32:29.970Z,0.28
2023-03-04T01:35:46.268Z,0.29
2023-03-04T01:39:02.341Z,0.28
2023-03-04T01:42:24.965Z,0.29
2023-03-04T01:45:43.299Z,0.31
2023-03-04T01:48:59.616Z,0.34
2023-03-04T01:52:18.831Z,0.35
2023-03-04T01:55:36.748Z,0.40
2023-03-04T02:02:09.718Z,0.39
2023-03-04T02:05:27.090Z,0.45
2023-03-04T02:08:44.379Z,0.45
2023-03-04T02:15:18.720Z,0.38
2023-03-04T02:18:35.007Z,0.41
2023-03-04T02:21:53.803Z,0.31
2023-03-04T02:25:14.575Z,0.39
2023-03-04T02:28:31.152Z,0.30
2023-03-04T02:31:50.085Z,0.35
2023-03-04T02:35:06.439Z,0.30
2023-03-04T02:38:22.915Z,0.38
2023-03-04T02:41:39.701Z,0.37
2023-03-04T02:45:05.427Z,0.34
2023-03-04T02:48:27.366Z,0.31
2023-03-04T02:51:43.468Z,0.30
2023-03-04T02:54:59.525Z,0.31
2023-03-04T02:58:16.108Z,0.31
2023-03-04T03:01:37.594Z,0.35
2023-03-04T03:04:54.230Z,0.38
2023-03-04T03:08:11.335Z,0.33
2023-03-04T03:14:43.224Z,0.40
2023-03-04T03:18:02.139Z,0.39
2023-03-04T03:21:18.279Z,0.36
2023-03-04T03:24:34.403Z,0.36
2023-03-04T03:27:51.286Z,0.37
2023-03-04T03:31:07.668Z,0.29
2023-03-04T03:34:23.905Z,0.36
2023-03-04T03:37:40.275Z,0.39
2023-03-04T03:40:56.463Z,0.39
2023-03-04T03:44:12.775Z,0.33
2023-03-04T03:47:30.159Z,0.38
2023-03-04T03:50:46.313Z,0.44
2023-03-04T03:54:02.321Z,0.44
2023-03-04T04:00:34.595Z,0.38
2023-03-04T04:03:50.666Z,0.31
2023-03-04T04:07:09.636Z,0.34
2023-03-04T04:10:26.575Z,0.37
2023-03-04T04:16:58.116Z,0.28
2023-03-04T04:20:17.111Z,0.33
2023-03-04T04:23:33.421Z,0.35
2023-03-04T04:30:05.573Z,0.38
2023-03-04T04:33:21.682Z,0.38
2023-03-04T04:36:38.015Z,0.30
2023-03-04T04:39:55.804Z,0.16
2023-03-04T04:43:12.651Z,0.15
2023-03-04T04:46:30.750Z,0.11
2023-03-04T04:49:49.361Z,0.14
2023-03-04T04:53:05.466Z,0.08
2023-03-04T05:01:09.359Z,0.06
2023-03-04T05:04:25.652Z,0.05
2023-03-04T05:07:41.855Z,0.06
2023-03-04T05:10:57.855Z,0.04
2023-03-04T05:14:14.153Z,0.05
2023-03-04T05:17:30.304Z,0.04
2023-03-04T05:20:46.308Z,0.07
2023-03-04T05:24:02.583Z,0.08
2023-03-04T05:27:18.797Z,0.09
2023-03-04T05:30:35.043Z,0.09
2023-03-04T05:33:51.229Z,0.10
2023-03-04T05:37:07.331Z,0.06
2023-03-04T05:40:26.526Z,-0.01
2023-03-04T05:46:58.424Z,-0.01
2023-03-04T05:50:17.334Z,0.03
2023-03-04T05:53:34.080Z,-0.05
2023-03-04T05:56:51.177Z,-0.09
2023-03-04T06:00:08.330Z,-0.08
2023-03-04T06:03:28.658Z,-0.09
2023-03-04T06:06:46.651Z,-0.09
2023-03-04T06:10:09.483Z,-0.07
2023-03-04T06:13:22.726Z,0.03
2023-03-04T06:16:38.857Z,-0.02
2023-03-04T06:19:54.995Z,0.02
2023-03-04T06:23:11.430Z,0.03
2023-03-04T06:26:27.558Z,0.08
2023-03-04T06:29:43.702Z,0.10
2023-03-04T06:32:59.815Z,0.12
2023-03-04T06:36:17.038Z,0.09
2023-03-04T06:39:33.601Z,0.16
2023-03-04T06:42:49.917Z,0.02
2023-03-04T06:46:05.978Z,0.04
2023-03-04T06:49:22.598Z,0.03
2023-03-04T06:52:38.995Z,0.04
2023-03-04T06:55:55.130Z,-0.02
2023-03-04T06:59:13.810Z,-0.03
2023-03-04T07:02:30.086Z,-0.14
2023-03-04T07:05:46.433Z,-0.08
2023-03-04T07:09:03.364Z,-0.25
2023-03-04T07:18:55.440Z,-0.15
2023-03-04T07:22:11.739Z,-0.03
2023-03-04T07:25:28.040Z,-0.11
2023-03-04T07:28:45.303Z,-0.08
2023-03-04T07:32:01.836Z,-0.12
2023-03-04T07:35:19.958Z,-0.13
2023-03-04T07:38:36.319Z,-0.15
2023-03-04T07:41:52.799Z,-0.06
2023-03-04T07:45:09.518Z,-0.09
2023-03-04T07:48:26.105Z,-0.21
2023-03-04T07:51:42.289Z,-0.13
2023-03-04T07:54:58.481Z,-0.25
2023-03-04T07:58:14.761Z,-0.13
2023-03-04T08:01:34.122Z,-0.10
2023-03-04T08:04:48.066Z,-0.13
2023-03-04T08:08:04.366Z,-0.07
2023-03-04T08:11:23.064Z,-0.09
2023-03-04T08:14:39.273Z,-0.09
2023-03-04T08:17:55.418Z,-0.10
2023-03-04T08:21:15.506Z,-0.08
2023-03-04T08:24:31.555Z,-0.06
2023-03-04T08:31:04.383Z,-0.20
2023-03-04T08:34:24.931Z,-0.08
2023-03-04T08:37:40.716Z,-0.01
2023-03-04T08:41:02.093Z,0.06
2023-03-04T08:44:18.943Z,0.08
2023-03-04T08:47:35.155Z,-0.01
2023-03-04T08:50:57.231Z,0.08
2023-03-04T08:54:11.816Z,0.09
2023-03-04T09:02:24.721Z,0.13
2023-03-04T09:05:41.920Z,0.21
2023-03-04T09:08:59.133Z,0.31
2023-03-04T09:12:16.242Z,0.15
2023-03-04T09:18:49.211Z,0.18
2023-03-04T09:22:05.577Z,0.30
2023-03-04T09:25:23.950Z,0.20
2023-03-04T09:28:39.903Z,0.20
2023-03-04T09:31:56.087Z,0.24
2023-03-04T09:35:13.711Z,0.31
2023-03-04T09:38:29.861Z,0.22
2023-03-04T09:41:53.793Z,0.22
2023-03-04T09:45:12.144Z,0.31
2023-03-04T09:48:33.576Z,0.40
2023-03-04T09:52:08.351Z,0.40
2023-03-04T09:55:31.623Z,0.41
2023-03-04T09:58:58.237Z,0.44
2023-03-04T10:02:28.366Z,0.48
2023-03-04T10:05:52.520Z,0.45
2023-03-04T10:09:12.953Z,0.38
2023-03-04T10:12:34.222Z,0.44
2023-03-04T10:19:11.699Z,0.43
2023-03-04T10:22:37.028Z,0.40
2023-03-04T10:25:55.509Z,0.37
2023-03-04T10:32:29.124Z,0.45
2023-03-04T10:35:46.713Z,0.52
2023-03-04T10:39:08.346Z,0.57
2023-03-04T10:42:39.333Z,0.50
2023-03-04T10:46:02.106Z,0.57
2023-03-04T10:49:21.188Z,0.58
2023-03-04T10:52:44.817Z,0.59
2023-03-04T10:56:01.285Z,0.61
2023-03-04T11:02:35.898Z,0.64
2023-03-04T11:05:52.276Z,0.67
2023-03-04T11:09:11.783Z,0.66
2023-03-04T11:12:33.863Z,0.71
2023-03-04T11:16:02.212Z,0.77
2023-03-04T11:19:24.066Z,0.84
2023-03-04T11:22:41.808Z,0.93
2023-03-04T11:26:04.471Z,0.91
2023-03-04T11:29:27.568Z,0.89
2023-03-04T11:32:49.588Z,0.86
2023-03-04T11:36:22.166Z,0.96
2023-03-04T11:39:44.892Z,0.94
2023-03-04T11:43:05.638Z,1.00
2023-03-04T11:46:48.237Z,1.09
2023-03-04T11:50:23.605Z,1.12
2023-03-04T11:54:10.266Z,1.02
2023-03-04T11:57:36.080Z,1.08
2023-03-04T12:00:57.748Z,1.18
2023-03-04T12:04:37.525Z,1.18
2023-03-04T12:08:37.909Z,1.14
2023-03-04T12:12:01.475Z,1.10
2023-03-04T12:18:54.933Z,1.28
2023-03-04T12:22:36.862Z,1.30
2023-03-04T12:25:58.663Z,1.27
2023-03-04T12:32:38.270Z,1.37
2023-03-04T12:36:02.477Z,1.38
2023-03-04T12:39:35.461Z,1.40
2023-03-04T12:43:01.344Z,1.44
2023-03-04T12:46:26.401Z,1.48
2023-03-04T12:49:59.571Z,1.43
2023-03-04T12:53:27.023Z,1.41
2023-03-04T12:56:49.874Z,1.45
2023-03-04T13:00:14.842Z,1.48
2023-03-04T13:03:39.619Z,1.48
2023-03-04T13:07:04.410Z,1.48
2023-03-04T13:10:24.748Z,1.55
2023-03-04T13:20:33.504Z,1.68
2023-03-04T13:23:51.698Z,1.71
2023-03-04T13:27:07.954Z,1.81
2023-03-04T13:31:04.642Z,1.82
2023-03-04T13:34:55.386Z,1.82
2023-03-04T13:38:26.989Z,1.87
2023-03-04T13:41:56.099Z,1.93
2023-03-04T13:45:26.654Z,1.83
2023-03-04T13:48:43.987Z,1.95
2023-03-04T13:52:01.055Z,1.98
2023-03-04T13:55:49.180Z,2.02
2023-03-04T14:05:37.131Z,2.18
2023-03-04T14:08:53.746Z,2.26
2023-03-04T14:12:19.069Z,2.16
2023-03-04T14:18:51.111Z,2.06
2023-03-04T14:22:07.849Z,2.16
2023-03-04T14:25:36.890Z,2.20
2023-03-04T14:29:00.493Z,2.24
2023-03-04T14:32:19.745Z,2.23
2023-03-04T14:35:39.374Z,2.22
2023-03-04T14:38:59.491Z,2.16
2023-03-04T14:42:18.872Z,2.14
2023-03-04T14:45:33.529Z,2.18
2023-03-04T14:48:53.625Z,2.06
2023-03-04T14:52:12.550Z,2.14
2023-03-04T14:55:34.033Z,2.14
2023-03-04T14:59:03.391Z,2.16
2023-03-04T15:02:36.469Z,2.15
2023-03-04T15:05:55.808Z,2.19
2023-03-04T15:09:11.294Z,2.21
2023-03-04T15:12:35.949Z,2.22
2023-03-04T15:19:11.614Z,2.32
2023-03-04T15:22:28.775Z,2.29
2023-03-04T15:25:45.578Z,2.33
2023-03-04T15:34:09.211Z,2.34
2023-03-04T15:37:29.367Z,2.34
2023-03-04T15:40:48.117Z,2.36
2023-03-04T15:47:57.960Z,2.40
2023-03-04T15:51:20.552Z,2.47
2023-03-04T15:54:38.597Z,2.48
2023-03-04T15:58:01.116Z,2.51
2023-03-04T16:01:21.929Z,2.50
2023-03-04T16:04:39.674Z,2.52
2023-03-04T16:08:00.011Z,2.53
2023-03-04T16:11:22.171Z,2.58
2023-03-04T16:17:56.240Z,2.57
2023-03-04T16:21:13.587Z,2.52
2023-03-04T16:24:31.126Z,2.54
2023-03-04T16:27:50.033Z,2.60
2023-03-04T16:31:06.580Z,2.62
2023-03-04T16:34:22.712Z,2.64
2023-03-04T16:37:39.073Z,2.66
2023-03-04T16:40:55.599Z,2.68
2023-03-04T16:48:00.847Z,2.64
2023-03-04T16:51:24.112Z,2.68
2023-03-04T16:54:43.437Z,2.70
2023-03-04T16:57:59.791Z,2.66
2023-03-04T17:04:33.323Z,2.70
2023-03-04T17:07:49.567Z,2.69
2023-03-04T17:11:05.753Z,2.59
2023-03-04T17:14:21.946Z,2.66
2023-03-04T17:17:41.101Z,2.71
2023-03-04T17:20:57.278Z,2.71
2023-03-04T17:24:14.583Z,2.69
2023-03-04T17:27:30.919Z,2.72
2023-03-04T17:30:47.781Z,2.72
2023-03-04T17:34:03.797Z,2.74
2023-03-04T17:37:20.508Z,2.69
2023-03-04T17:40:36.872Z,2.74
2023-03-04T17:43:55.784Z,2.75
2023-03-04T17:47:12.364Z,2.74
2023-03-04T17:50:28.865Z,2.71
2023-03-04T17:53:45.382Z,2.74
2023-03-04T17:57:02.372Z,2.73
2023-03-04T18:00:22.267Z,2.77
2023-03-04T18:03:38.627Z,2.77
2023-03-04T18:06:54.846Z,2.75
2023-03-04T18:10:12.580Z,2.79
2023-03-04T18:13:29.164Z,2.75
2023-03-04T18:16:48.728Z,2.78
2023-03-04T18:20:05.206Z,2.78
2023-03-04T18:23:21.821Z,2.80
2023-03-04T18:26:38.712Z,2.81
2023-03-04T18:29:56.367Z,2.81
2023-03-04T18:33:12.771Z,2.85
2023-03-04T18:36:30.394Z,2.83
2023-03-04T18:39:49.806Z,2.77
2023-03-04T18:43:05.222Z,2.81
2023-03-04T18:49:37.811Z,2.86
2023-03-04T18:52:54.667Z,2.82
2023-03-04T18:56:15.678Z,2.82
2023-03-04T19:05:16.956Z,2.81
2023-03-04T19:08:33.700Z,2.77
2023-03-04T19:11:51.651Z,2.80
2023-03-04T19:18:23.226Z,2.72
2023-03-04T19:21:40.043Z,2.73
2023-03-04T19:24:56.233Z,2.74
2023-03-04T19:28:14.065Z,2.71
2023-03-04T19:31:30.169Z,2.71
2023-03-04T19:34:46.822Z,2.70
2023-03-04T19:38:03.034Z,2.80
2023-03-04T19:41:23.838Z,2.79
2023-03-04T19:44:40.137Z,2.82
2023-03-04T19:47:57.954Z,2.80
2023-03-04T19:51:23.753Z,2.84
2023-03-04T19:54:41.236Z,2.86
2023-03-04T19:57:58.051Z,2.87
2023-03-04T20:01:16.310Z,2.85
2023-03-04T20:04:34.472Z,2.88
2023-03-04T20:07:53.182Z,2.88
2023-03-04T20:11:11.098Z,2.96
2023-03-04T20:14:27.420Z,2.97
2023-03-04T20:17:45.781Z,2.95
2023-03-04T20:21:06.493Z,2.98
2023-03-04T20:24:27.775Z,2.99
2023-03-04T20:27:46.909Z,2.98
2023-03-04T20:31:19.060Z,3.01
2023-03-04T20:34:37.199Z,3.00
2023-03-04T20:37:53.546Z,3.03
2023-03-04T20:41:10.959Z,3.01
2023-03-04T20:44:27.101Z,2.97
2023-03-04T20:47:43.721Z,3.00
2023-03-04T20:50:59.881Z,3.02
2023-03-04T20:54:18.860Z,3.00
2023-03-04T20:57:35.614Z,3.03
2023-03-04T21:04:07.675Z,2.93
2023-03-04T21:07:25.034Z,2.81
2023-03-04T21:10:44.311Z,2.78
2023-03-04T21:14:01.470Z,2.74
2023-03-04T21:17:18.154Z,2.72
2023-03-04T21:20:34.806Z,2.72
2023-03-04T21:23:54.489Z,2.65
2023-03-04T21:27:11.325Z,2.66
2023-03-04T21:30:27.907Z,2.59
2023-03-04T21:33:45.042Z,2.53
2023-03-04T21:37:01.850Z,2.45
2023-03-04T21:40:21.581Z,2.41
2023-03-04T21:43:37.689Z,2.17
2023-03-04T21:50:09.163Z,2.30
2023-03-04T21:53:26.669Z,2.21
2023-03-04T21:56:43.572Z,2.07
2023-03-04T22:04:52.571Z,1.97
2023-03-04T22:08:08.595Z,1.93
2023-03-04T22:11:25.487Z,1.99
2023-03-04T22:14:42.175Z,1.99
2023-03-04T22:17:58.229Z,2.00
2023-03-04T22:21:17.821Z,1.98
2023-03-04T22:24:34.153Z,2.00
2023-03-04T22:27:50.410Z,1.94
2023-03-04T22:31:07.179Z,1.96
2023-03-04T22:34:24.521Z,1.99
2023-03-04T22:37:40.683Z,1.97
2023-03-04T22:40:56.822Z,1.90
2023-03-04T22:44:14.814Z,1.90
2023-03-04T22:47:31.056Z,1.87
2023-03-04T22:50:47.383Z,1.86
2023-03-04T22:54:04.108Z,1.84
2023-03-04T22:57:20.253Z,1.80
2023-03-04T23:03:54.484Z,1.78
2023-03-04T23:07:10.698Z,1.80
2023-03-04T23:10:30.059Z,1.83
2023-03-04T23:13:47.507Z,1.86
2023-03-04T23:20:24.170Z,1.85
2023-03-04T23:23:40.292Z,1.85
2023-03-04T23:27:04.549Z,1.84
2023-03-04T23:35:53.332Z,1.86
2023-03-04T23:39:10.901Z,1.86
2023-03-04T23:42:27.090Z,1.80
2023-03-04T23:45:44.866Z,1.82
2023-03-04T23:49:02.504Z,1.83
2023-03-04T23:52:18.998Z,1.86
2023-03-04T23:55:35.201Z,1.81
2023-03-04T23:58:51.887Z,1.83
